sensor_id;sensor_type;location;lat;lon;timestamp;P1;durP1;ratioP1;P2;durP2;ratioP2
1076;SDS011;527;48.726;9.362;2022-10-03T00:00:20;1.60;;;1.40;;
1076;SDS011;527;48.726;9.362;2022-10-03T00:03:06;2.50;;;2.10;;
1076;SDS011;527;48.726;9.362;2022-10-03T00:05:56;5.63;;;2.27;;
1076;SDS011;527;48.726;9.362;2022-10-03T00:11:45;2.07;;;1.93;;
1076;SDS011;527;48.726;9.362;2022-10-03T00:14:23;6.43;;;2.07;;
1076;SDS011;527;48.726;9.362;2022-10-03T00:17:01;2.97;;;2.47;;
1076;SDS011;527;48.726;9.362;2022-10-03T00:19:36;2.70;;;2.50;;
1076;SDS011;527;48.726;9.362;2022-10-03T00:22:15;3.10;;;2.13;;
1076;SDS011;527;48.726;9.362;2022-10-03T00:24:55;4.00;;;2.10;;
1076;SDS011;527;48.726;9.362;2022-10-03T00:27:36;2.70;;;2.23;;
1076;SDS011;527;48.726;9.362;2022-10-03T00:30:12;3.80;;;2.43;;
1076;SDS011;527;48.726;9.362;2022-10-03T00:32:53;2.60;;;2.40;;
1076;SDS011;527;48.726;9.362;2022-10-03T00:35:35;3.37;;;2.70;;
1076;SDS011;527;48.726;9.362;2022-10-03T00:41:29;3.37;;;2.57;;
1076;SDS011;527;48.726;9.362;2022-10-03T00:44:16;5.23;;;3.57;;
1076;SDS011;527;48.726;9.362;2022-10-03T00:47:11;6.20;;;5.20;;
1076;SDS011;527;48.726;9.362;2022-10-03T00:50:13;3.20;;;3.10;;
1076;SDS011;527;48.726;9.362;2022-10-03T00:53:12;3.43;;;3.20;;
1076;SDS011;527;48.726;9.362;2022-10-03T00:58:58;7.50;;;3.10;;
1076;SDS011;527;48.726;9.362;2022-10-03T01:01:43;7.03;;;3.60;;
1076;SDS011;527;48.726;9.362;2022-10-03T01:04:22;5.77;;;4.20;;
1076;SDS011;527;48.726;9.362;2022-10-03T01:07:05;5.33;;;4.00;;
1076;SDS011;527;48.726;9.362;2022-10-03T01:09:52;5.30;;;3.73;;
1076;SDS011;527;48.726;9.362;2022-10-03T01:12:32;7.20;;;3.70;;
1076;SDS011;527;48.726;9.362;2022-10-03T01:18:26;5.97;;;4.53;;
1076;SDS011;527;48.726;9.362;2022-10-03T01:21:06;6.20;;;3.80;;
1076;SDS011;527;48.726;9.362;2022-10-03T01:23:44;7.60;;;4.40;;
1076;SDS011;527;48.726;9.362;2022-10-03T01:26:41;4.83;;;4.17;;
1076;SDS011;527;48.726;9.362;2022-10-03T01:29:22;4.00;;;3.80;;
1076;SDS011;527;48.726;9.362;2022-10-03T01:32:16;7.27;;;4.30;;
1076;SDS011;527;48.726;9.362;2022-10-03T01:34:51;5.70;;;4.07;;
1076;SDS011;527;48.726;9.362;2022-10-03T01:37:28;8.33;;;5.13;;
1076;SDS011;527;48.726;9.362;2022-10-03T01:40:06;4.60;;;4.27;;
1076;SDS011;527;48.726;9.362;2022-10-03T01:42:44;9.50;;;4.90;;
1076;SDS011;527;48.726;9.362;2022-10-03T01:45:25;4.43;;;4.20;;
1076;SDS011;527;48.726;9.362;2022-10-03T01:47:59;4.57;;;4.33;;
1076;SDS011;527;48.726;9.362;2022-10-03T01:50:31;11.20;;;5.20;;
1076;SDS011;527;48.726;9.362;2022-10-03T01:53:05;8.37;;;6.07;;
1076;SDS011;527;48.726;9.362;2022-10-03T01:55:40;5.03;;;3.97;;
1076;SDS011;527;48.726;9.362;2022-10-03T01:58:18;5.90;;;4.43;;
1076;SDS011;527;48.726;9.362;2022-10-03T02:00:57;6.73;;;5.10;;
1076;SDS011;527;48.726;9.362;2022-10-03T02:03:34;6.13;;;3.83;;
1076;SDS011;527;48.726;9.362;2022-10-03T02:06:13;7.40;;;5.00;;
1076;SDS011;527;48.726;9.362;2022-10-03T02:08:50;6.20;;;4.70;;
1076;SDS011;527;48.726;9.362;2022-10-03T02:11:25;4.93;;;4.10;;
1076;SDS011;527;48.726;9.362;2022-10-03T02:14:00;8.50;;;5.17;;
1076;SDS011;527;48.726;9.362;2022-10-03T02:16:41;5.90;;;4.27;;
1076;SDS011;527;48.726;9.362;2022-10-03T02:19:12;9.70;;;4.67;;
1076;SDS011;527;48.726;9.362;2022-10-03T02:21:47;5.63;;;4.63;;
1076;SDS011;527;48.726;9.362;2022-10-03T02:24:22;6.40;;;4.53;;
1076;SDS011;527;48.726;9.362;2022-10-03T02:27:06;7.50;;;4.43;;
1076;SDS011;527;48.726;9.362;2022-10-03T02:29:52;5.90;;;4.47;;
1076;SDS011;527;48.726;9.362;2022-10-03T02:35:42;7.80;;;3.70;;
1076;SDS011;527;48.726;9.362;2022-10-03T02:38:57;4.93;;;3.03;;
1076;SDS011;527;48.726;9.362;2022-10-03T02:41:51;4.63;;;3.70;;
1076;SDS011;527;48.726;9.362;2022-10-03T02:44:46;5.20;;;4.93;;
1076;SDS011;527;48.726;9.362;2022-10-03T02:47:36;4.77;;;3.50;;
1076;SDS011;527;48.726;9.362;2022-10-03T02:50:45;3.83;;;3.33;;
1076;SDS011;527;48.726;9.362;2022-10-03T02:56:43;4.73;;;3.47;;
1076;SDS011;527;48.726;9.362;2022-10-03T03:02:45;3.77;;;3.10;;
1076;SDS011;527;48.726;9.362;2022-10-03T03:09:03;3.40;;;3.00;;
1076;SDS011;527;48.726;9.362;2022-10-03T03:17:55;4.80;;;3.60;;
1076;SDS011;527;48.726;9.362;2022-10-03T03:20:37;4.00;;;3.73;;
1076;SDS011;527;48.726;9.362;2022-10-03T03:29:25;7.57;;;4.73;;
1076;SDS011;527;48.726;9.362;2022-10-03T03:32:06;5.07;;;3.97;;
1076;SDS011;527;48.726;9.362;2022-10-03T03:34:46;7.57;;;5.43;;
1076;SDS011;527;48.726;9.362;2022-10-03T03:37:26;6.23;;;4.93;;
1076;SDS011;527;48.726;9.362;2022-10-03T03:40:09;5.80;;;4.60;;
1076;SDS011;527;48.726;9.362;2022-10-03T03:42:57;6.40;;;4.50;;
1076;SDS011;527;48.726;9.362;2022-10-03T03:45:44;5.60;;;4.20;;
1076;SDS011;527;48.726;9.362;2022-10-03T03:48:32;6.30;;;4.60;;
1076;SDS011;527;48.726;9.362;2022-10-03T03:51:15;5.80;;;4.60;;
1076;SDS011;527;48.726;9.362;2022-10-03T03:56:56;6.17;;;5.03;;
1076;SDS011;527;48.726;9.362;2022-10-03T03:59:38;6.27;;;4.00;;
1076;SDS011;527;48.726;9.362;2022-10-03T04:02:20;6.73;;;5.10;;
1076;SDS011;527;48.726;9.362;2022-10-03T04:05:05;5.27;;;4.10;;
1076;SDS011;527;48.726;9.362;2022-10-03T04:07:49;5.83;;;5.60;;
1076;SDS011;527;48.726;9.362;2022-10-03T04:10:41;8.67;;;5.57;;
1076;SDS011;527;48.726;9.362;2022-10-03T04:13:25;6.20;;;4.60;;
1076;SDS011;527;48.726;9.362;2022-10-03T04:16:10;5.50;;;5.00;;
1076;SDS011;527;48.726;9.362;2022-10-03T04:19:10;6.80;;;4.83;;
1076;SDS011;527;48.726;9.362;2022-10-03T04:21:50;8.47;;;4.30;;
1076;SDS011;527;48.726;9.362;2022-10-03T04:24:29;7.03;;;4.37;;
1076;SDS011;527;48.726;9.362;2022-10-03T04:27:14;5.67;;;4.43;;
1076;SDS011;527;48.726;9.362;2022-10-03T04:29:55;7.80;;;3.90;;
1076;SDS011;527;48.726;9.362;2022-10-03T04:32:36;5.30;;;4.03;;
1076;SDS011;527;48.726;9.362;2022-10-03T04:35:19;6.00;;;4.40;;
1076;SDS011;527;48.726;9.362;2022-10-03T04:38:05;6.73;;;5.23;;
1076;SDS011;527;48.726;9.362;2022-10-03T04:40:42;6.33;;;4.40;;
1076;SDS011;527;48.726;9.362;2022-10-03T04:43:18;4.53;;;4.27;;
1076;SDS011;527;48.726;9.362;2022-10-03T04:46:09;5.40;;;5.10;;
1076;SDS011;527;48.726;9.362;2022-10-03T04:48:48;5.83;;;4.40;;
1076;SDS011;527;48.726;9.362;2022-10-03T04:51:23;3.90;;;3.50;;
1076;SDS011;527;48.726;9.362;2022-10-03T04:54:02;6.70;;;4.20;;
1076;SDS011;527;48.726;9.362;2022-10-03T04:56:43;4.53;;;3.90;;
1076;SDS011;527;48.726;9.362;2022-10-03T04:59:24;5.23;;;3.67;;
1076;SDS011;527;48.726;9.362;2022-10-03T05:01:59;7.67;;;4.93;;
1076;SDS011;527;48.726;9.362;2022-10-03T05:04:31;7.67;;;5.10;;
1076;SDS011;527;48.726;9.362;2022-10-03T05:07:10;6.60;;;4.40;;
1076;SDS011;527;48.726;9.362;2022-10-03T05:09:44;6.07;;;4.07;;
1076;SDS011;527;48.726;9.362;2022-10-03T05:12:19;8.10;;;4.53;;
1076;SDS011;527;48.726;9.362;2022-10-03T05:15:04;4.70;;;4.07;;
1076;SDS011;527;48.726;9.362;2022-10-03T05:17:47;6.63;;;4.20;;
1076;SDS011;527;48.726;9.362;2022-10-03T05:20:27;8.10;;;5.60;;
1076;SDS011;527;48.726;9.362;2022-10-03T05:23:09;7.30;;;4.93;;
1076;SDS011;527;48.726;9.362;2022-10-03T05:25:45;9.20;;;4.90;;
1076;SDS011;527;48.726;9.362;2022-10-03T05:28:38;7.17;;;4.97;;
1076;SDS011;527;48.726;9.362;2022-10-03T05:31:24;8.73;;;6.63;;
1076;SDS011;527;48.726;9.362;2022-10-03T05:34:07;7.77;;;4.53;;
1076;SDS011;527;48.726;9.362;2022-10-03T05:36:49;6.23;;;5.03;;
1076;SDS011;527;48.726;9.362;2022-10-03T05:39:33;6.70;;;5.67;;
1076;SDS011;527;48.726;9.362;2022-10-03T05:42:13;6.47;;;5.50;;
1076;SDS011;527;48.726;9.362;2022-10-03T05:44:58;10.80;;;5.33;;
1076;SDS011;527;48.726;9.362;2022-10-03T05:47:31;6.43;;;4.80;;
1076;SDS011;527;48.726;9.362;2022-10-03T05:53:12;8.00;;;5.13;;
1076;SDS011;527;48.726;9.362;2022-10-03T05:55:52;6.27;;;4.83;;
1076;SDS011;527;48.726;9.362;2022-10-03T06:01:54;5.33;;;4.10;;
1076;SDS011;527;48.726;9.362;2022-10-03T06:04:43;6.33;;;4.47;;
1076;SDS011;527;48.726;9.362;2022-10-03T06:07:26;7.17;;;5.33;;
1076;SDS011;527;48.726;9.362;2022-10-03T06:10:13;9.00;;;5.00;;
1076;SDS011;527;48.726;9.362;2022-10-03T06:12:54;6.63;;;4.83;;
1076;SDS011;527;48.726;9.362;2022-10-03T06:15:36;6.37;;;4.80;;
1076;SDS011;527;48.726;9.362;2022-10-03T06:18:20;6.07;;;4.83;;
1076;SDS011;527;48.726;9.362;2022-10-03T06:24:02;6.53;;;5.30;;
1076;SDS011;527;48.726;9.362;2022-10-03T06:26:57;8.43;;;5.40;;
1076;SDS011;527;48.726;9.362;2022-10-03T06:30:02;6.07;;;4.33;;
1076;SDS011;527;48.726;9.362;2022-10-03T06:32:52;5.97;;;5.07;;
1076;SDS011;527;48.726;9.362;2022-10-03T06:35:58;5.53;;;5.03;;
1076;SDS011;527;48.726;9.362;2022-10-03T06:39:19;7.67;;;5.40;;
1076;SDS011;527;48.726;9.362;2022-10-03T06:48:23;8.40;;;5.67;;
1076;SDS011;527;48.726;9.362;2022-10-03T06:51:16;7.87;;;5.10;;
1076;SDS011;527;48.726;9.362;2022-10-03T06:54:13;11.60;;;6.03;;
1076;SDS011;527;48.726;9.362;2022-10-03T06:57:07;6.53;;;5.20;;
1076;SDS011;527;48.726;9.362;2022-10-03T07:00:00;8.03;;;5.73;;
1076;SDS011;527;48.726;9.362;2022-10-03T07:02:57;10.20;;;5.43;;
1076;SDS011;527;48.726;9.362;2022-10-03T07:08:56;7.77;;;6.13;;
1076;SDS011;527;48.726;9.362;2022-10-03T07:12:03;8.87;;;6.20;;
1076;SDS011;527;48.726;9.362;2022-10-03T07:14:52;6.73;;;5.20;;
1076;SDS011;527;48.726;9.362;2022-10-03T07:18:19;6.70;;;5.17;;
1076;SDS011;527;48.726;9.362;2022-10-03T07:24:14;12.50;;;6.77;;
1076;SDS011;527;48.726;9.362;2022-10-03T07:27:04;14.17;;;7.10;;
1076;SDS011;527;48.726;9.362;2022-10-03T07:29:55;11.60;;;6.93;;
1076;SDS011;527;48.726;9.362;2022-10-03T07:32:36;12.00;;;7.10;;
1076;SDS011;527;48.726;9.362;2022-10-03T07:35:34;10.70;;;7.40;;
1076;SDS011;527;48.726;9.362;2022-10-03T07:38:33;10.80;;;6.93;;
1076;SDS011;527;48.726;9.362;2022-10-03T07:41:44;11.20;;;6.50;;
1076;SDS011;527;48.726;9.362;2022-10-03T07:44:28;12.70;;;7.73;;
1076;SDS011;527;48.726;9.362;2022-10-03T07:53:37;11.10;;;7.20;;
1076;SDS011;527;48.726;9.362;2022-10-03T07:56:35;10.00;;;7.17;;
1076;SDS011;527;48.726;9.362;2022-10-03T07:59:29;11.20;;;8.70;;
1076;SDS011;527;48.726;9.362;2022-10-03T08:02:27;14.60;;;8.90;;
1076;SDS011;527;48.726;9.362;2022-10-03T08:05:20;16.60;;;7.80;;
1076;SDS011;527;48.726;9.362;2022-10-03T08:08:01;21.83;;;8.43;;
1076;SDS011;527;48.726;9.362;2022-10-03T08:10:55;9.73;;;7.20;;
1076;SDS011;527;48.726;9.362;2022-10-03T08:13:34;15.00;;;8.50;;
1076;SDS011;527;48.726;9.362;2022-10-03T08:16:28;13.10;;;8.20;;
1076;SDS011;527;48.726;9.362;2022-10-03T08:19:17;19.33;;;8.40;;
1076;SDS011;527;48.726;9.362;2022-10-03T08:22:04;12.67;;;8.93;;
1076;SDS011;527;48.726;9.362;2022-10-03T08:24:47;10.07;;;6.90;;
1076;SDS011;527;48.726;9.362;2022-10-03T08:27:31;9.60;;;7.40;;
1076;SDS011;527;48.726;9.362;2022-10-03T08:30:22;11.23;;;7.40;;
1076;SDS011;527;48.726;9.362;2022-10-03T08:32:59;11.03;;;7.70;;
1076;SDS011;527;48.726;9.362;2022-10-03T08:38:51;11.73;;;6.90;;
1076;SDS011;527;48.726;9.362;2022-10-03T08:41:40;12.37;;;7.10;;
1076;SDS011;527;48.726;9.362;2022-10-03T08:44:42;12.30;;;6.80;;
1076;SDS011;527;48.726;9.362;2022-10-03T08:47:31;15.37;;;6.73;;
1076;SDS011;527;48.726;9.362;2022-10-03T08:50:21;14.23;;;7.17;;
1076;SDS011;527;48.726;9.362;2022-10-03T08:56:14;12.70;;;6.30;;
1076;SDS011;527;48.726;9.362;2022-10-03T08:59:00;10.37;;;6.50;;
1076;SDS011;527;48.726;9.362;2022-10-03T09:01:49;10.10;;;5.60;;
1076;SDS011;527;48.726;9.362;2022-10-03T09:07:45;8.70;;;5.77;;
1076;SDS011;527;48.726;9.362;2022-10-03T09:10:50;9.03;;;4.87;;
1076;SDS011;527;48.726;9.362;2022-10-03T09:13:59;6.00;;;4.00;;
1076;SDS011;527;48.726;9.362;2022-10-03T09:16:55;7.60;;;4.43;;
1076;SDS011;527;48.726;9.362;2022-10-03T09:22:50;7.93;;;4.40;;
1076;SDS011;527;48.726;9.362;2022-10-03T09:25:36;6.23;;;4.37;;
1076;SDS011;527;48.726;9.362;2022-10-03T09:28:26;7.23;;;4.67;;
1076;SDS011;527;48.726;9.362;2022-10-03T09:31:44;4.20;;;3.60;;
1076;SDS011;527;48.726;9.362;2022-10-03T09:34:46;9.83;;;6.00;;
1076;SDS011;527;48.726;9.362;2022-10-03T09:40:49;9.87;;;4.73;;
1076;SDS011;527;48.726;9.362;2022-10-03T09:53:58;9.37;;;5.57;;
1076;SDS011;527;48.726;9.362;2022-10-03T09:57:08;10.17;;;5.70;;
1076;SDS011;527;48.726;9.362;2022-10-03T09:59:58;10.17;;;5.57;;
1076;SDS011;527;48.726;9.362;2022-10-03T10:02:46;7.00;;;6.03;;
1076;SDS011;527;48.726;9.362;2022-10-03T10:05:36;12.80;;;5.53;;
1076;SDS011;527;48.726;9.362;2022-10-03T10:08:30;8.83;;;5.70;;
1076;SDS011;527;48.726;9.362;2022-10-03T10:11:18;7.40;;;5.13;;
1076;SDS011;527;48.726;9.362;2022-10-03T10:20:22;10.63;;;6.67;;
1076;SDS011;527;48.726;9.362;2022-10-03T10:29:27;10.27;;;4.93;;
1076;SDS011;527;48.726;9.362;2022-10-03T10:35:13;7.60;;;4.00;;
1076;SDS011;527;48.726;9.362;2022-10-03T10:38:10;7.47;;;5.03;;
1076;SDS011;527;48.726;9.362;2022-10-03T10:50:27;7.67;;;3.90;;
1076;SDS011;527;48.726;9.362;2022-10-03T10:56:44;4.77;;;3.50;;
1076;SDS011;527;48.726;9.362;2022-10-03T11:09:03;9.23;;;4.10;;
1076;SDS011;527;48.726;9.362;2022-10-03T11:27:46;5.40;;;3.43;;
1076;SDS011;527;48.726;9.362;2022-10-03T11:39:34;7.37;;;3.97;;
1076;SDS011;527;48.726;9.362;2022-10-03T11:42:17;7.47;;;3.43;;
1076;SDS011;527;48.726;9.362;2022-10-03T11:44:57;2.80;;;2.40;;
1076;SDS011;527;48.726;9.362;2022-10-03T11:47:38;6.23;;;2.97;;
1076;SDS011;527;48.726;9.362;2022-10-03T11:50:30;3.73;;;3.13;;
1076;SDS011;527;48.726;9.362;2022-10-03T11:53:36;6.70;;;3.27;;
1076;SDS011;527;48.726;9.362;2022-10-03T11:56:14;7.50;;;2.90;;
1076;SDS011;527;48.726;9.362;2022-10-03T11:58:53;4.50;;;3.17;;
1076;SDS011;527;48.726;9.362;2022-10-03T12:01:34;4.63;;;3.33;;
1076;SDS011;527;48.726;9.362;2022-10-03T12:04:19;4.47;;;4.20;;
1076;SDS011;527;48.726;9.362;2022-10-03T12:06:57;6.23;;;3.20;;
1076;SDS011;527;48.726;9.362;2022-10-03T12:09:54;3.30;;;2.60;;
1076;SDS011;527;48.726;9.362;2022-10-03T12:12:30;6.10;;;3.20;;
1076;SDS011;527;48.726;9.362;2022-10-03T12:15:14;4.87;;;3.30;;
1076;SDS011;527;48.726;9.362;2022-10-03T12:17:51;5.13;;;3.53;;
1076;SDS011;527;48.726;9.362;2022-10-03T12:20:29;5.90;;;3.67;;
1076;SDS011;527;48.726;9.362;2022-10-03T12:23:06;3.33;;;3.00;;
1076;SDS011;527;48.726;9.362;2022-10-03T12:25:44;2.70;;;2.50;;
1076;SDS011;527;48.726;9.362;2022-10-03T12:28:14;6.13;;;3.07;;
1076;SDS011;527;48.726;9.362;2022-10-03T12:30:50;5.60;;;2.80;;
1076;SDS011;527;48.726;9.362;2022-10-03T12:33:25;8.03;;;4.07;;
1076;SDS011;527;48.726;9.362;2022-10-03T12:36:08;4.20;;;2.97;;
1076;SDS011;527;48.726;9.362;2022-10-03T12:38:43;3.93;;;3.60;;
1076;SDS011;527;48.726;9.362;2022-10-03T12:44:21;3.80;;;3.07;;
1076;SDS011;527;48.726;9.362;2022-10-03T12:47:07;5.60;;;3.07;;
1076;SDS011;527;48.726;9.362;2022-10-03T12:50:12;5.50;;;3.43;;
1076;SDS011;527;48.726;9.362;2022-10-03T12:52:58;8.60;;;3.70;;
1076;SDS011;527;48.726;9.362;2022-10-03T12:55:46;2.57;;;2.30;;
1076;SDS011;527;48.726;9.362;2022-10-03T12:58:28;3.40;;;2.70;;
1076;SDS011;527;48.726;9.362;2022-10-03T13:01:07;4.47;;;3.63;;
1076;SDS011;527;48.726;9.362;2022-10-03T13:03:43;7.43;;;2.77;;
1076;SDS011;527;48.726;9.362;2022-10-03T13:06:29;3.30;;;3.20;;
1076;SDS011;527;48.726;9.362;2022-10-03T13:09:25;5.90;;;1.90;;
1076;SDS011;527;48.726;9.362;2022-10-03T13:12:11;3.00;;;1.57;;
1076;SDS011;527;48.726;9.362;2022-10-03T13:18:18;3.03;;;1.60;;
1076;SDS011;527;48.726;9.362;2022-10-03T13:20:59;2.20;;;1.50;;
1076;SDS011;527;48.726;9.362;2022-10-03T13:23:54;2.33;;;2.00;;
1076;SDS011;527;48.726;9.362;2022-10-03T13:26:31;5.10;;;2.47;;
1076;SDS011;527;48.726;9.362;2022-10-03T13:29:15;2.67;;;1.70;;
1076;SDS011;527;48.726;9.362;2022-10-03T13:31:57;3.23;;;2.00;;
1076;SDS011;527;48.726;9.362;2022-10-03T13:34:34;3.03;;;2.23;;
1076;SDS011;527;48.726;9.362;2022-10-03T13:37:11;2.17;;;1.70;;
1076;SDS011;527;48.726;9.362;2022-10-03T13:39:46;2.33;;;2.00;;
1076;SDS011;527;48.726;9.362;2022-10-03T13:42:19;2.80;;;1.90;;
1076;SDS011;527;48.726;9.362;2022-10-03T13:44:59;2.47;;;2.20;;
1076;SDS011;527;48.726;9.362;2022-10-03T13:47:39;2.30;;;2.07;;
1076;SDS011;527;48.726;9.362;2022-10-03T13:50:14;1.90;;;1.87;;
1076;SDS011;527;48.726;9.362;2022-10-03T13:52:46;2.33;;;1.40;;
1076;SDS011;527;48.726;9.362;2022-10-03T13:55:22;1.97;;;1.90;;
1076;SDS011;527;48.726;9.362;2022-10-03T13:58:03;3.57;;;2.33;;
1076;SDS011;527;48.726;9.362;2022-10-03T14:00:48;4.20;;;2.13;;
1076;SDS011;527;48.726;9.362;2022-10-03T14:03:42;3.23;;;2.37;;
1076;SDS011;527;48.726;9.362;2022-10-03T14:06:21;2.07;;;1.93;;
1076;SDS011;527;48.726;9.362;2022-10-03T14:11:59;2.63;;;1.93;;
1076;SDS011;527;48.726;9.362;2022-10-03T14:14:44;1.77;;;1.77;;
1076;SDS011;527;48.726;9.362;2022-10-03T14:17:21;3.60;;;2.20;;
1076;SDS011;527;48.726;9.362;2022-10-03T14:20:00;5.00;;;2.57;;
1076;SDS011;527;48.726;9.362;2022-10-03T14:22:39;2.30;;;1.97;;
1076;SDS011;527;48.726;9.362;2022-10-03T14:25:19;2.27;;;1.57;;
1076;SDS011;527;48.726;9.362;2022-10-03T14:27:51;2.30;;;1.87;;
1076;SDS011;527;48.726;9.362;2022-10-03T14:30:21;3.03;;;1.73;;
1076;SDS011;527;48.726;9.362;2022-10-03T14:32:59;2.50;;;2.07;;
1076;SDS011;527;48.726;9.362;2022-10-03T14:35:38;2.13;;;2.00;;
1076;SDS011;527;48.726;9.362;2022-10-03T14:38:14;1.80;;;1.73;;
1076;SDS011;527;48.726;9.362;2022-10-03T14:41:17;3.50;;;3.30;;
1076;SDS011;527;48.726;9.362;2022-10-03T14:43:51;3.93;;;2.57;;
1076;SDS011;527;48.726;9.362;2022-10-03T14:46:23;2.50;;;2.00;;
1076;SDS011;527;48.726;9.362;2022-10-03T14:48:55;2.30;;;1.90;;
1076;SDS011;527;48.726;9.362;2022-10-03T14:51:27;3.53;;;1.90;;
1076;SDS011;527;48.726;9.362;2022-10-03T14:53:59;2.13;;;1.70;;
1076;SDS011;527;48.726;9.362;2022-10-03T14:56:40;2.75;;;1.80;;
1076;SDS011;527;48.726;9.362;2022-10-03T14:59:10;2.63;;;2.22;;
1076;SDS011;527;48.726;9.362;2022-10-03T15:01:47;2.40;;;1.42;;
1076;SDS011;527;48.726;9.362;2022-10-03T15:07:09;3.20;;;1.85;;
1076;SDS011;527;48.726;9.362;2022-10-03T15:09:41;3.35;;;2.25;;
1076;SDS011;527;48.726;9.362;2022-10-03T15:12:15;2.20;;;2.00;;
1076;SDS011;527;48.726;9.362;2022-10-03T15:14:46;1.95;;;1.77;;
1076;SDS011;527;48.726;9.362;2022-10-03T15:17:21;3.03;;;2.70;;
1076;SDS011;527;48.726;9.362;2022-10-03T15:19:54;1.90;;;1.88;;
1076;SDS011;527;48.726;9.362;2022-10-03T15:22:27;2.22;;;2.05;;
1076;SDS011;527;48.726;9.362;2022-10-03T15:24:59;3.22;;;2.42;;
1076;SDS011;527;48.726;9.362;2022-10-03T15:27:34;2.47;;;2.28;;
1076;SDS011;527;48.726;9.362;2022-10-03T15:30:06;1.98;;;1.90;;
1076;SDS011;527;48.726;9.362;2022-10-03T15:32:45;3.63;;;3.35;;
1076;SDS011;527;48.726;9.362;2022-10-03T15:35:15;4.00;;;2.40;;
1076;SDS011;527;48.726;9.362;2022-10-03T15:37:48;3.45;;;2.78;;
1076;SDS011;527;48.726;9.362;2022-10-03T15:40:20;3.33;;;2.20;;
1076;SDS011;527;48.726;9.362;2022-10-03T15:42:52;2.97;;;1.67;;
1076;SDS011;527;48.726;9.362;2022-10-03T15:45:30;4.10;;;2.30;;
1076;SDS011;527;48.726;9.362;2022-10-03T15:48:00;2.67;;;2.10;;
1076;SDS011;527;48.726;9.362;2022-10-03T15:50:33;2.40;;;2.22;;
1076;SDS011;527;48.726;9.362;2022-10-03T15:53:08;3.30;;;2.13;;
1076;SDS011;527;48.726;9.362;2022-10-03T15:56:07;3.67;;;3.50;;
1076;SDS011;527;48.726;9.362;2022-10-03T15:58:41;3.00;;;2.35;;
1076;SDS011;527;48.726;9.362;2022-10-03T16:01:15;3.15;;;2.30;;
1076;SDS011;527;48.726;9.362;2022-10-03T16:03:48;2.57;;;2.40;;
1076;SDS011;527;48.726;9.362;2022-10-03T16:06:19;3.20;;;2.60;;
1076;SDS011;527;48.726;9.362;2022-10-03T16:08:55;2.50;;;2.30;;
1076;SDS011;527;48.726;9.362;2022-10-03T16:11:28;4.50;;;2.60;;
1076;SDS011;527;48.726;9.362;2022-10-03T16:14:11;6.10;;;2.90;;
1076;SDS011;527;48.726;9.362;2022-10-03T16:16:45;4.10;;;2.40;;
1076;SDS011;527;48.726;9.362;2022-10-03T16:19:26;3.90;;;2.10;;
1076;SDS011;527;48.726;9.362;2022-10-03T16:22:04;2.77;;;2.40;;
1076;SDS011;527;48.726;9.362;2022-10-03T16:24:45;3.27;;;3.07;;
1076;SDS011;527;48.726;9.362;2022-10-03T16:27:19;2.90;;;2.60;;
1076;SDS011;527;48.726;9.362;2022-10-03T16:29:52;3.10;;;2.93;;
1076;SDS011;527;48.726;9.362;2022-10-03T16:32:41;3.67;;;3.27;;
1076;SDS011;527;48.726;9.362;2022-10-03T16:35:23;4.10;;;3.90;;
1076;SDS011;527;48.726;9.362;2022-10-03T16:37:59;4.10;;;3.87;;
1076;SDS011;527;48.726;9.362;2022-10-03T16:40:31;4.40;;;2.80;;
1076;SDS011;527;48.726;9.362;2022-10-03T16:43:03;4.60;;;1.80;;
1076;SDS011;527;48.726;9.362;2022-10-03T16:45:35;3.80;;;2.33;;
1076;SDS011;527;48.726;9.362;2022-10-03T16:48:09;3.40;;;2.40;;
1076;SDS011;527;48.726;9.362;2022-10-03T16:50:57;3.27;;;2.00;;
1076;SDS011;527;48.726;9.362;2022-10-03T16:53:27;4.80;;;2.90;;
1076;SDS011;527;48.726;9.362;2022-10-03T16:55:57;5.83;;;2.63;;
1076;SDS011;527;48.726;9.362;2022-10-03T16:58:32;4.20;;;2.30;;
1076;SDS011;527;48.726;9.362;2022-10-03T17:01:05;5.20;;;2.63;;
1076;SDS011;527;48.726;9.362;2022-10-03T17:03:54;3.33;;;2.33;;
1076;SDS011;527;48.726;9.362;2022-10-03T17:13:37;7.50;;;4.63;;
1076;SDS011;527;48.726;9.362;2022-10-03T17:16:11;8.80;;;6.70;;
1076;SDS011;527;48.726;9.362;2022-10-03T17:18:42;6.63;;;5.93;;
1076;SDS011;527;48.726;9.362;2022-10-03T17:21:18;6.57;;;4.57;;
1076;SDS011;527;48.726;9.362;2022-10-03T17:24:06;4.83;;;3.30;;
1076;SDS011;527;48.726;9.362;2022-10-03T17:26:39;6.47;;;3.20;;
1076;SDS011;527;48.726;9.362;2022-10-03T17:29:12;3.00;;;2.80;;
1076;SDS011;527;48.726;9.362;2022-10-03T17:31:47;4.60;;;3.30;;
1076;SDS011;527;48.726;9.362;2022-10-03T17:34:20;4.43;;;3.03;;
1076;SDS011;527;48.726;9.362;2022-10-03T17:39:49;7.77;;;3.60;;
1076;SDS011;527;48.726;9.362;2022-10-03T17:42:30;5.50;;;4.70;;
1076;SDS011;527;48.726;9.362;2022-10-03T17:45:09;4.63;;;4.20;;
1076;SDS011;527;48.726;9.362;2022-10-03T17:47:46;3.63;;;2.80;;
1076;SDS011;527;48.726;9.362;2022-10-03T17:50:22;4.20;;;3.00;;
1076;SDS011;527;48.726;9.362;2022-10-03T17:52:56;4.17;;;2.83;;
1076;SDS011;527;48.726;9.362;2022-10-03T17:55:28;3.57;;;2.70;;
1076;SDS011;527;48.726;9.362;2022-10-03T17:57:59;5.10;;;4.07;;
1076;SDS011;527;48.726;9.362;2022-10-03T18:00:52;5.30;;;4.80;;
1076;SDS011;527;48.726;9.362;2022-10-03T18:03:28;7.67;;;4.80;;
1076;SDS011;527;48.726;9.362;2022-10-03T18:06:29;8.20;;;4.47;;
1076;SDS011;527;48.726;9.362;2022-10-03T18:09:22;7.50;;;4.50;;
1076;SDS011;527;48.726;9.362;2022-10-03T18:11:54;8.03;;;4.27;;
1076;SDS011;527;48.726;9.362;2022-10-03T18:14:32;8.27;;;3.90;;
1076;SDS011;527;48.726;9.362;2022-10-03T18:17:12;7.27;;;4.10;;
1076;SDS011;527;48.726;9.362;2022-10-03T18:19:47;5.13;;;3.93;;
1076;SDS011;527;48.726;9.362;2022-10-03T18:22:23;4.50;;;4.27;;
1076;SDS011;527;48.726;9.362;2022-10-03T18:24:56;5.93;;;4.30;;
1076;SDS011;527;48.726;9.362;2022-10-03T18:30:49;3.73;;;3.53;;
1076;SDS011;527;48.726;9.362;2022-10-03T18:33:27;4.73;;;3.30;;
1076;SDS011;527;48.726;9.362;2022-10-03T18:35:59;3.33;;;3.00;;
1076;SDS011;527;48.726;9.362;2022-10-03T18:38:36;4.10;;;3.43;;
1076;SDS011;527;48.726;9.362;2022-10-03T18:41:07;5.67;;;3.70;;
1076;SDS011;527;48.726;9.362;2022-10-03T18:43:40;4.90;;;3.30;;
1076;SDS011;527;48.726;9.362;2022-10-03T18:46:13;6.43;;;3.87;;
1076;SDS011;527;48.726;9.362;2022-10-03T18:48:49;4.40;;;3.70;;
1076;SDS011;527;48.726;9.362;2022-10-03T18:51:45;7.93;;;4.27;;
1076;SDS011;527;48.726;9.362;2022-10-03T18:54:19;7.30;;;4.03;;
1076;SDS011;527;48.726;9.362;2022-10-03T18:57:02;7.17;;;3.90;;
1076;SDS011;527;48.726;9.362;2022-10-03T18:59:41;5.00;;;3.70;;
1076;SDS011;527;48.726;9.362;2022-10-03T19:02:16;4.57;;;3.83;;
1076;SDS011;527;48.726;9.362;2022-10-03T19:04:51;4.60;;;3.60;;
1076;SDS011;527;48.726;9.362;2022-10-03T19:07:25;4.83;;;4.37;;
1076;SDS011;527;48.726;9.362;2022-10-03T19:10:05;4.53;;;3.97;;
1076;SDS011;527;48.726;9.362;2022-10-03T19:12:51;4.00;;;3.63;;
1076;SDS011;527;48.726;9.362;2022-10-03T19:15:29;5.67;;;4.47;;
1076;SDS011;527;48.726;9.362;2022-10-03T19:18:10;4.03;;;3.87;;
1076;SDS011;527;48.726;9.362;2022-10-03T19:20:49;4.03;;;3.90;;
1076;SDS011;527;48.726;9.362;2022-10-03T19:23:20;4.30;;;3.93;;
1076;SDS011;527;48.726;9.362;2022-10-03T19:25:53;5.73;;;4.23;;
1076;SDS011;527;48.726;9.362;2022-10-03T19:28:27;5.70;;;4.37;;
1076;SDS011;527;48.726;9.362;2022-10-03T19:30:58;4.53;;;3.90;;
1076;SDS011;527;48.726;9.362;2022-10-03T19:33:32;4.77;;;3.90;;
1076;SDS011;527;48.726;9.362;2022-10-03T19:36:08;8.03;;;4.20;;
1076;SDS011;527;48.726;9.362;2022-10-03T19:38:42;6.33;;;4.97;;
1076;SDS011;527;48.726;9.362;2022-10-03T19:41:15;8.17;;;4.90;;
1076;SDS011;527;48.726;9.362;2022-10-03T19:43:52;9.60;;;4.40;;
1076;SDS011;527;48.726;9.362;2022-10-03T19:46:32;7.20;;;4.13;;
1076;SDS011;527;48.726;9.362;2022-10-03T19:52:14;7.30;;;4.63;;
1076;SDS011;527;48.726;9.362;2022-10-03T19:54:46;6.13;;;4.57;;
1076;SDS011;527;48.726;9.362;2022-10-03T19:57:19;9.47;;;4.50;;
1076;SDS011;527;48.726;9.362;2022-10-03T19:59:53;6.00;;;4.23;;
1076;SDS011;527;48.726;9.362;2022-10-03T20:02:37;5.60;;;4.03;;
1076;SDS011;527;48.726;9.362;2022-10-03T20:05:06;7.30;;;5.17;;
1076;SDS011;527;48.726;9.362;2022-10-03T20:07:42;5.50;;;4.23;;
1076;SDS011;527;48.726;9.362;2022-10-03T20:10:16;6.80;;;5.20;;